createdAt,value
2022-12-25T00:01:10.274Z,12.50
2022-12-25T00:04:13.400Z,12.63
2022-12-25T00:07:16.466Z,12.77
2022-12-25T00:10:19.920Z,11.83
2022-12-25T00:13:22.918Z,12.60
2022-12-25T00:16:28.044Z,11.53
2022-12-25T00:19:31.192Z,12.50
2022-12-25T00:22:34.192Z,12.10
2022-12-25T00:25:40.659Z,11.90
2022-12-25T00:28:44.419Z,12.03
2022-12-25T00:31:48.816Z,11.70
2022-12-25T00:34:51.816Z,11.63
2022-12-25T00:37:54.822Z,11.90
2022-12-25T00:40:57.849Z,10.63
2022-12-25T00:44:00.839Z,12.20
2022-12-25T00:47:05.363Z,10.53
2022-12-25T00:50:09.632Z,10.13
2022-12-25T00:53:12.723Z,10.90
2022-12-25T00:56:15.733Z,10.10
2022-12-25T00:59:18.809Z,10.00
2022-12-25T01:02:26.475Z,9.60
2022-12-25T01:05:29.621Z,9.87
2022-12-25T01:08:35.797Z,9.20
2022-12-25T01:11:37.853Z,8.93
2022-12-25T01:14:40.823Z,9.10
2022-12-25T01:17:46.123Z,8.73
2022-12-25T01:20:49.483Z,9.73
2022-12-25T01:23:53.579Z,9.07
2022-12-25T01:26:56.565Z,8.40
2022-12-25T01:29:59.522Z,7.90
2022-12-25T01:33:03.941Z,7.87
2022-12-25T01:36:15.219Z,8.13
2022-12-25T01:39:18.298Z,8.20
2022-12-25T01:42:23.708Z,7.90
2022-12-25T01:45:47.725Z,8.17
2022-12-25T01:48:54.451Z,8.10
2022-12-25T01:52:00.116Z,7.93
2022-12-25T01:55:05.078Z,7.40
2022-12-25T01:58:08.118Z,7.80
2022-12-25T02:01:11.938Z,6.80
2022-12-25T02:04:22.563Z,7.17
2022-12-25T02:07:28.076Z,6.80
2022-12-25T02:10:31.477Z,6.40
2022-12-25T02:13:34.498Z,6.80
2022-12-25T02:16:57.879Z,7.23
2022-12-25T02:20:29.079Z,6.73
2022-12-25T02:24:11.039Z,7.13
2022-12-25T02:27:25.894Z,5.90
2022-12-25T02:30:35.644Z,7.20
2022-12-25T02:34:10.462Z,6.13
2022-12-25T02:37:17.862Z,6.77
2022-12-25T02:40:26.304Z,6.87
2022-12-25T02:43:50.328Z,6.40
2022-12-25T02:47:12.619Z,6.50
2022-12-25T02:50:35.118Z,7.20
2022-12-25T02:53:59.486Z,6.23
2022-12-25T02:57:25.391Z,5.77
2022-12-25T03:00:45.844Z,5.90
2022-12-25T03:04:10.891Z,5.80
2022-12-25T03:07:17.729Z,5.90
2022-12-25T03:10:39.171Z,5.33
2022-12-25T03:13:44.548Z,6.10
2022-12-25T03:16:50.999Z,6.30
2022-12-25T03:20:13.400Z,5.73
2022-12-25T03:23:39.923Z,5.33
2022-12-25T03:26:59.011Z,5.97
2022-12-25T03:30:20.300Z,6.03
2022-12-25T03:33:47.688Z,5.87
2022-12-25T03:37:09.986Z,6.10
2022-12-25T03:40:41.896Z,5.80
2022-12-25T03:44:12.876Z,5.70
2022-12-25T03:47:37.910Z,6.10
2022-12-25T03:51:03.720Z,5.60
2022-12-25T03:54:28.693Z,5.83
2022-12-25T03:57:52.515Z,5.70
2022-12-25T04:01:12.939Z,6.50
2022-12-25T04:04:33.391Z,6.27
2022-12-25T04:07:54.072Z,5.90
2022-12-25T04:11:16.200Z,6.10
2022-12-25T04:14:36.694Z,6.30
2022-12-25T04:17:57.151Z,6.30
2022-12-25T04:21:17.317Z,5.70
2022-12-25T04:24:40.051Z,6.07
2022-12-25T04:28:01.923Z,6.70
2022-12-25T04:31:22.436Z,6.33
2022-12-25T04:34:57.509Z,6.30
2022-12-25T04:38:00.549Z,6.50
2022-12-25T04:41:04.043Z,7.23
2022-12-25T04:44:08.481Z,6.70
2022-12-25T04:47:11.914Z,6.10
2022-12-25T04:50:15.128Z,6.33
2022-12-25T04:53:19.981Z,6.20
2022-12-25T04:56:23.350Z,5.50
2022-12-25T04:59:27.806Z,5.63
2022-12-25T05:02:30.941Z,6.23
2022-12-25T05:05:34.100Z,5.60
2022-12-25T05:08:37.542Z,5.37
2022-12-25T05:11:40.655Z,5.40
2022-12-25T05:14:45.150Z,5.77
2022-12-25T05:17:48.115Z,6.20
2022-12-25T05:20:54.672Z,5.80
2022-12-25T05:23:58.905Z,5.97
2022-12-25T05:27:01.946Z,5.43
2022-12-25T05:30:07.352Z,5.13
2022-12-25T05:33:10.382Z,4.93
2022-12-25T05:36:14.110Z,5.20
2022-12-25T05:39:17.125Z,5.30
2022-12-25T05:42:20.108Z,4.40
2022-12-25T05:45:24.563Z,4.53
2022-12-25T05:48:27.592Z,5.13
2022-12-25T05:51:30.924Z,5.20
2022-12-25T05:54:33.921Z,4.33
2022-12-25T05:57:36.959Z,4.80
2022-12-25T06:00:42.107Z,4.90
2022-12-25T06:03:45.252Z,4.40
2022-12-25T06:06:48.394Z,4.20
2022-12-25T06:09:51.489Z,4.90
2022-12-25T06:12:55.538Z,5.00
2022-12-25T06:16:00.295Z,4.53
2022-12-25T06:19:03.383Z,3.50
2022-12-25T06:22:06.391Z,4.30
2022-12-25T06:25:10.392Z,3.83
2022-12-25T06:28:13.679Z,4.17
2022-12-25T06:31:22.152Z,17.77
2022-12-25T06:34:25.172Z,8.50
2022-12-25T06:37:28.181Z,9.60
2022-12-25T06:40:31.129Z,11.40
2022-12-25T06:43:34.411Z,11.80
2022-12-25T06:46:38.831Z,12.83
2022-12-25T06:49:41.810Z,14.10
2022-12-25T06:52:44.876Z,11.70
2022-12-25T06:55:47.973Z,11.87
2022-12-25T06:58:53.045Z,12.03
2022-12-25T07:01:58.831Z,11.07
2022-12-25T07:05:02.931Z,10.07
2022-12-25T07:08:06.405Z,10.30
2022-12-25T07:11:09.998Z,9.10
2022-12-25T07:14:23.858Z,9.40
2022-12-25T07:17:28.861Z,8.23
2022-12-25T07:20:32.321Z,8.33
2022-12-25T07:23:36.771Z,9.20
2022-12-25T07:26:39.813Z,11.87
2022-12-25T07:29:42.780Z,12.07
2022-12-25T07:32:50.229Z,11.70
2022-12-25T07:35:53.573Z,12.77
2022-12-25T07:38:56.669Z,13.23
2022-12-25T07:41:59.711Z,15.80
2022-12-25T07:45:04.205Z,11.40
2022-12-25T07:48:15.327Z,10.50
2022-12-25T07:51:19.631Z,10.70
2022-12-25T07:54:22.670Z,11.63
2022-12-25T07:57:25.765Z,11.67
2022-12-25T08:00:32.725Z,13.80
2022-12-25T08:03:37.458Z,3.77
2022-12-25T08:06:40.601Z,3.93
2022-12-25T08:09:43.605Z,3.73
2022-12-25T08:12:46.742Z,71.00
2022-12-25T08:15:50.198Z,107.20
2022-12-25T08:18:55.133Z,84.10
2022-12-25T08:21:58.179Z,93.20
2022-12-25T08:25:01.560Z,88.73
2022-12-25T08:28:04.766Z,77.00
2022-12-25T08:31:09.887Z,86.07
2022-12-25T08:34:14.369Z,84.43
2022-12-25T08:37:17.396Z,80.80
2022-12-25T08:40:20.435Z,83.57
2022-12-25T08:43:23.519Z,79.53
2022-12-25T08:46:26.606Z,82.93
2022-12-25T08:49:31.084Z,77.20
2022-12-25T08:52:34.266Z,79.80
2022-12-25T08:55:37.277Z,77.07
2022-12-25T08:58:40.669Z,71.80
2022-12-25T09:01:43.818Z,65.17
2022-12-25T09:04:48.554Z,58.17
2022-12-25T09:07:51.547Z,53.80
2022-12-25T09:10:54.661Z,51.60
2022-12-25T09:13:57.709Z,50.57
2022-12-25T09:17:00.790Z,49.63
2022-12-25T09:20:06.243Z,48.90
2022-12-25T09:23:13.736Z,46.40
2022-12-25T09:26:18.823Z,45.80
2022-12-25T09:29:21.870Z,44.50
2022-12-25T09:32:24.890Z,42.77
2022-12-25T09:35:29.401Z,41.43
2022-12-25T09:38:33.004Z,40.27
2022-12-25T09:41:41.240Z,39.83
2022-12-25T09:44:47.264Z,39.10
2022-12-25T09:47:50.826Z,37.37
2022-12-25T09:51:01.214Z,37.50
2022-12-25T09:54:10.463Z,35.03
2022-12-25T09:57:14.808Z,36.30
2022-12-25T10:00:20.206Z,31.20
2022-12-25T10:03:39.719Z,28.97
2022-12-25T10:06:56.996Z,26.80
2022-12-25T10:10:13.349Z,25.10
2022-12-25T10:13:37.041Z,23.27
2022-12-25T10:16:52.654Z,22.60
2022-12-25T10:20:03.485Z,21.03
2022-12-25T10:23:17.303Z,17.13
2022-12-25T10:26:22.096Z,17.07
2022-12-25T10:29:25.222Z,15.40
2022-12-25T10:32:28.448Z,15.10
2022-12-25T10:35:33.055Z,13.67
2022-12-25T10:38:37.787Z,13.10
2022-12-25T10:42:01.264Z,12.50
2022-12-25T10:45:08.085Z,14.40
2022-12-25T10:48:21.328Z,15.70
2022-12-25T10:51:32.111Z,16.03
2022-12-25T10:54:37.312Z,16.30
2022-12-25T10:57:47.476Z,16.13
2022-12-25T11:00:55.267Z,16.50
2022-12-25T11:03:58.403Z,15.20
2022-12-25T11:07:07.053Z,16.30
2022-12-25T11:10:23.557Z,15.80
2022-12-25T11:13:29.195Z,14.77
2022-12-25T11:16:40.290Z,14.60
2022-12-25T11:19:53.829Z,10.77
2022-12-25T11:22:56.913Z,9.37
2022-12-25T11:26:03.535Z,7.83
2022-12-25T11:29:18.450Z,6.77
2022-12-25T11:32:27.355Z,7.50
2022-12-25T11:35:46.786Z,7.90
2022-12-25T11:38:49.785Z,9.60
2022-12-25T11:41:59.477Z,9.53
2022-12-25T11:45:07.004Z,8.30
2022-12-25T11:48:15.428Z,9.40
2022-12-25T11:51:19.985Z,8.83
2022-12-25T11:54:29.099Z,8.47
2022-12-25T11:57:36.003Z,10.47
2022-12-25T12:00:39.491Z,9.10
2022-12-25T12:03:43.764Z,9.23
2022-12-25T12:06:51.510Z,10.17
2022-12-25T12:10:04.028Z,8.83
2022-12-25T12:13:27.190Z,8.67
2022-12-25T12:16:30.819Z,8.40
2022-12-25T12:19:34.843Z,9.00
2022-12-25T12:22:37.968Z,9.80
2022-12-25T12:25:42.312Z,8.40
2022-12-25T12:28:49.619Z,7.53
2022-12-25T12:31:53.952Z,8.30
2022-12-25T12:34:58.214Z,8.83
2022-12-25T12:38:05.544Z,7.73
2022-12-25T12:41:09.669Z,8.13
2022-12-25T12:44:16.999Z,8.07
2022-12-25T12:47:39.143Z,8.23
2022-12-25T12:50:43.786Z,8.33
2022-12-25T12:53:46.771Z,8.10
2022-12-25T12:57:00.846Z,7.73
2022-12-25T13:00:10.784Z,7.70
2022-12-25T13:03:32.234Z,7.53
2022-12-25T13:06:42.039Z,7.83
2022-12-25T13:10:01.025Z,8.73
2022-12-25T13:13:08.161Z,10.50
2022-12-25T13:16:23.757Z,11.50
2022-12-25T13:19:29.599Z,11.77
2022-12-25T13:22:34.862Z,13.20
2022-12-25T13:25:37.922Z,12.10
2022-12-25T13:28:41.073Z,16.70
2022-12-25T13:31:45.552Z,16.43
2022-12-25T13:34:49.334Z,12.77
2022-12-25T13:37:52.717Z,20.53
2022-12-25T13:41:23.539Z,27.83
2022-12-25T13:44:28.707Z,33.13
2022-12-25T13:47:34.820Z,29.47
2022-12-25T13:50:38.436Z,29.70
2022-12-25T13:53:41.474Z,28.60
2022-12-25T13:56:49.597Z,27.90
2022-12-25T13:59:53.138Z,25.47
2022-12-25T14:02:58.207Z,24.27
2022-12-25T14:06:02.649Z,19.73
2022-12-25T14:09:06.006Z,19.37
2022-12-25T14:12:14.177Z,18.00
2022-12-25T14:15:23.526Z,17.43
2022-12-25T14:18:29.030Z,17.90
2022-12-25T14:21:34.297Z,16.40
2022-12-25T14:24:37.801Z,15.33
2022-12-25T14:27:41.295Z,15.43
2022-12-25T14:30:44.563Z,15.10
2022-12-25T14:33:49.896Z,13.90
2022-12-25T14:36:53.783Z,14.40
2022-12-25T14:40:00.002Z,14.37
2022-12-25T14:43:05.757Z,14.23
2022-12-25T14:46:09.141Z,14.23
2022-12-25T14:49:25.447Z,13.60
2022-12-25T14:52:31.365Z,13.50
2022-12-25T14:55:34.463Z,13.10
2022-12-25T14:58:43.146Z,13.20
2022-12-25T15:01:52.175Z,12.97
2022-12-25T15:04:56.702Z,12.10
2022-12-25T15:08:18.991Z,12.80
2022-12-25T15:11:22.039Z,11.93
2022-12-25T15:14:25.559Z,12.83
2022-12-25T15:17:31.418Z,13.27
2022-12-25T15:20:36.497Z,14.30
2022-12-25T15:23:39.512Z,13.00
2022-12-25T15:26:42.607Z,14.70
2022-12-25T15:30:09.273Z,14.07
2022-12-25T15:33:13.901Z,12.40
2022-12-25T15:36:18.324Z,12.80
2022-12-25T15:39:21.335Z,12.27
2022-12-25T15:42:25.909Z,11.60
2022-12-25T15:45:30.506Z,12.00
2022-12-25T15:48:33.621Z,12.20
2022-12-25T15:51:38.233Z,11.70
2022-12-25T15:54:41.264Z,10.80
2022-12-25T15:57:47.219Z,10.60
2022-12-25T16:00:51.544Z,11.70
2022-12-25T16:03:54.721Z,12.00
2022-12-25T16:07:00.678Z,12.33
2022-12-25T16:10:03.706Z,13.13
2022-12-25T16:13:06.843Z,12.40
2022-12-25T16:16:09.980Z,12.87
2022-12-25T16:19:13.089Z,12.30
2022-12-25T16:22:21.572Z,12.37
2022-12-25T16:25:25.116Z,12.17
2022-12-25T16:28:28.108Z,12.10
2022-12-25T16:31:31.102Z,11.73
2022-12-25T16:34:34.177Z,12.43
2022-12-25T16:37:40.470Z,12.90
2022-12-25T16:40:44.538Z,12.97
2022-12-25T16:43:48.019Z,12.80
2022-12-25T16:46:51.077Z,12.93
2022-12-25T16:49:54.240Z,16.73
2022-12-25T16:52:58.770Z,15.60
2022-12-25T16:56:07.039Z,16.87
2022-12-25T16:59:10.104Z,16.97
2022-12-25T17:02:16.708Z,17.87
2022-12-25T17:05:19.875Z,19.03
2022-12-25T17:08:24.315Z,19.47
2022-12-25T17:11:30.380Z,18.07
2022-12-25T17:14:34.299Z,19.43
2022-12-25T17:17:37.311Z,16.57
2022-12-25T17:20:40.454Z,18.93
2022-12-25T17:23:45.229Z,20.03
2022-12-25T17:26:48.894Z,20.47
2022-12-25T17:29:51.879Z,20.70
2022-12-25T17:32:55.292Z,21.27
2022-12-25T17:36:04.069Z,22.43
2022-12-25T17:39:08.690Z,21.30
2022-12-25T17:42:11.760Z,22.23
2022-12-25T17:45:15.061Z,21.80
2022-12-25T17:48:18.207Z,22.33
2022-12-25T17:51:23.480Z,22.07
2022-12-25T17:54:28.078Z,23.63
2022-12-25T17:57:31.154Z,22.93
2022-12-25T18:00:34.175Z,23.70
2022-12-25T18:03:37.915Z,24.00
2022-12-25T18:06:41.373Z,16.50
2022-12-25T18:09:45.747Z,15.00
2022-12-25T18:12:48.852Z,15.77
2022-12-25T18:15:52.148Z,16.93
2022-12-25T18:18:55.568Z,16.90
2022-12-25T18:21:58.530Z,18.33
2022-12-25T18:25:02.882Z,18.10
2022-12-25T18:28:06.153Z,19.60
2022-12-25T18:31:09.956Z,19.37
2022-12-25T18:34:12.958Z,21.60
2022-12-25T18:37:15.890Z,21.70
2022-12-25T18:40:20.302Z,23.80
2022-12-25T18:43:53.619Z,22.93
2022-12-25T18:46:46.601Z,22.97
2022-12-25T18:49:49.754Z,23.53
2022-12-25T18:52:52.804Z,25.23
2022-12-25T18:55:58.569Z,24.40
2022-12-25T18:59:01.753Z,23.77
2022-12-25T19:02:04.809Z,23.77
2022-12-25T19:05:08.379Z,21.93
2022-12-25T19:08:11.615Z,23.57
2022-12-25T19:11:16.681Z,22.70
2022-12-25T19:14:19.676Z,22.13
2022-12-25T19:17:29.615Z,22.30
2022-12-25T19:20:35.731Z,21.73
2022-12-25T19:23:39.052Z,21.07
2022-12-25T19:26:43.900Z,21.77
2022-12-25T19:29:46.922Z,20.80
2022-12-25T19:32:50.233Z,19.97
2022-12-25T19:35:53.210Z,19.93
2022-12-25T19:38:56.251Z,20.10
2022-12-25T19:42:00.654Z,19.53
2022-12-25T19:45:03.723Z,18.33
2022-12-25T19:48:07.260Z,18.70
2022-12-25T19:51:17.232Z,18.53
2022-12-25T19:54:22.879Z,17.73
2022-12-25T19:57:27.407Z,17.47
2022-12-25T20:00:30.379Z,17.77
2022-12-25T20:03:33.614Z,17.43
2022-12-25T20:06:39.323Z,16.03
2022-12-25T20:09:42.285Z,16.40
2022-12-25T20:12:46.688Z,16.70
2022-12-25T20:15:49.957Z,16.20
2022-12-25T20:18:53.339Z,17.40
2022-12-25T20:21:56.495Z,16.07
2022-12-25T20:24:59.984Z,15.30
2022-12-25T20:28:04.592Z,15.73
2022-12-25T20:31:09.056Z,16.13
2022-12-25T20:34:12.699Z,15.53
2022-12-25T20:37:15.711Z,15.60
2022-12-25T20:40:19.083Z,14.50
2022-12-25T20:43:23.493Z,14.90
2022-12-25T20:46:27.551Z,14.87
2022-12-25T20:49:32.602Z,15.70
2022-12-25T20:52:35.869Z,14.30
2022-12-25T20:55:38.959Z,14.33
2022-12-25T20:58:43.831Z,14.60
2022-12-25T21:01:47.921Z,17.60
2022-12-25T21:04:54.252Z,19.67
2022-12-25T21:07:57.411Z,21.07
2022-12-25T21:11:02.007Z,20.53
2022-12-25T21:14:06.616Z,19.63
2022-12-25T21:17:09.741Z,20.07
2022-12-25T21:20:13.227Z,19.80
2022-12-25T21:23:17.052Z,21.03
2022-12-25T21:26:22.422Z,19.37
2022-12-25T21:29:26.853Z,21.50
2022-12-25T21:32:46.954Z,18.80
2022-12-25T21:35:50.093Z,18.23
2022-12-25T21:38:56.092Z,18.47
2022-12-25T21:41:59.614Z,18.70
2022-12-25T21:45:04.073Z,19.63
2022-12-25T21:48:07.395Z,18.50
2022-12-25T21:51:31.906Z,17.97
2022-12-25T21:54:35.475Z,17.97
2022-12-25T21:57:38.601Z,17.83
2022-12-25T22:00:43.066Z,17.53
2022-12-25T22:03:46.353Z,16.37
2022-12-25T22:07:07.008Z,16.37
2022-12-25T22:10:10.335Z,17.33
2022-12-25T22:13:27.321Z,17.00
2022-12-25T22:16:49.338Z,17.03
2022-12-25T22:19:52.488Z,16.80
2022-12-25T22:22:55.742Z,15.30
2022-12-25T22:25:58.806Z,15.67
2022-12-25T22:29:02.017Z,15.53
2022-12-25T22:32:07.019Z,14.80
2022-12-25T22:35:12.345Z,14.43
2022-12-25T22:38:15.574Z,14.00
2022-12-25T22:41:18.549Z,14.23
2022-12-25T22:44:21.650Z,15.57
2022-12-25T22:47:26.013Z,14.40
2022-12-25T22:50:29.523Z,13.63
2022-12-25T22:53:32.502Z,13.50
2022-12-25T22:56:35.702Z,13.00
2022-12-25T22:59:38.783Z,13.73
2022-12-25T23:02:43.248Z,12.40
2022-12-25T23:05:46.489Z,13.10
2022-12-25T23:08:49.709Z,12.50
2022-12-25T23:11:52.757Z,12.90
2022-12-25T23:14:54.916Z,12.90
2022-12-25T23:18:16.978Z,12.73
2022-12-25T23:21:37.666Z,11.60
2022-12-25T23:24:58.036Z,12.67
2022-12-25T23:28:00.988Z,12.33
2022-12-25T23:31:03.096Z,12.03
2022-12-25T23:34:08.554Z,11.57
2022-12-25T23:37:12.545Z,10.63
2022-12-25T23:40:15.942Z,12.10
2022-12-25T23:43:18.968Z,11.27
2022-12-25T23:46:22.187Z,11.60
2022-12-25T23:49:26.959Z,11.97
2022-12-25T23:52:30.010Z,11.50
2022-12-25T23:55:34.741Z,12.60
2022-12-25T23:58:37.771Z,11.23
